Time;durP1;ratioP1;P1;durP2;ratioP2;P2;SDS_P1;SDS_P2;PMS_P1;PMS_P2;Temp;Humidity;BMP_temperature;BMP_pressure;BME280_temperature;BME280_humidity;BME280_pressure;Samples;Min_cycle;Max_cycle;Signal;HPM_P1;HPM_P2
2022/02/02 00:02:04;;;;;;;49.83;8.63;;;;;;;;;;4405155;32;20015;-69
2022/02/02 00:04:32;;;;;;;43.22;8.57;;;;;;;;;;4408086;32;20030;-69
2022/02/02 00:07:09;;;;;;;43.65;9.15;;;;;;;;;;4408388;32;20027;-69
2022/02/02 00:09:35;;;;;;;45.90;9.98;;;;;;;;;;4396463;32;20109;-69
2022/02/02 00:12:18;;;;;;;;;;;;;;;;;;4393279;32;20072;-69
2022/02/02 00:14:57;;;;;;;44.88;8.43;;;;;;;;;;4391915;32;20232;-69
2022/02/02 00:17:43;;;;;;;45.35;8.85;;;;;;;;;;4391563;32;20011;-68
2022/02/02 00:20:25;;;;;;;43.10;9.23;;;;;;;;;;4393143;32;20038;-68
2022/02/02 00:22:53;;;;;;;39.25;8.48;;;;;;;;;;4392954;32;20007;-69
2022/02/02 00:25:29;;;;;;;52.28;9.25;;;;;;;;;;4390848;32;20432;-69
2022/02/02 00:27:57;;;;;;;40.83;8.30;;;;;;;;;;4392372;32;20421;-69
2022/02/02 00:30:26;;;;;;;45.25;9.75;;;;;;;;;;4392637;32;20115;-69
2022/02/02 00:33:29;;;;;;;34.80;8.07;;;;;;;;;;4392867;32;20027;-68
2022/02/02 00:35:53;;;;;;;41.50;7.22;;;;;;;;;;4389836;32;20463;-69
2022/02/02 00:38:18;;;;;;;36.80;7.43;;;;;;;;;;4389954;32;20053;-70
2022/02/02 00:40:43;;;;;;;;;;;;;;;;;;4393503;32;20027;-69
2022/02/02 00:43:08;;;;;;;44.70;7.85;;;;;;;;;;4392663;32;19942;-69
2022/02/02 00:45:43;;;;;;;;;;;;;;;;;;4392931;32;20065;-70
2022/02/02 00:48:09;;;;;;;42.28;8.90;;;;;;;;;;4391134;32;20301;-69
2022/02/02 00:50:34;;;;;;;38.00;6.82;;;;;;;;;;4392473;32;20048;-69
2022/02/02 00:52:59;;;;;;;;;;;;;;;;;;4391466;32;20023;-68
2022/02/02 00:55:24;;;;;;;43.90;8.15;;;;;;;;;;4391172;32;19937;-69
2022/02/02 00:57:49;;;;;;;;;;;;;;;;;;4395007;32;20114;-68
2022/02/02 01:00:15;;;;;;;43.30;8.25;;;;;;;;;;4405781;32;19949;-67
2022/02/02 01:02:40;;;;;;;;;;;;;;;;;;4408279;32;20052;-68
2022/02/02 01:05:05;;;;;;;46.22;7.00;;;;;;;;;;4406977;32;19983;-67
2022/02/02 01:07:51;;;;;;;;;;;;;;;;;;4405908;32;20565;-68
2022/02/02 01:10:26;;;;;;;38.67;7.97;;;;;;;;;;4405099;32;19947;-68
2022/02/02 01:13:09;;;;;;;45.00;8.57;;;;;;;;;;4407529;32;20079;-69
2022/02/02 01:16:53;;;;;;;41.50;7.75;;;;;;;;;;4404621;32;20409;-68
2022/02/02 01:20:57;;;;;;;;;;;;;;;;;;4393424;32;20027;-68
2022/02/02 01:28:33;;;;;;;43.05;9.57;;;;;;;;;;4407415;32;20003;-70
2022/02/02 01:31:00;;;;;;;;;;;;;;;;;;4406264;32;20023;-67
2022/02/02 01:33:25;;;;;;;50.42;7.62;;;;;;;;;;4405596;32;19933;-69
2022/02/02 01:35:50;;;;;;;;;;;;;;;;;;4406173;32;20065;-67
2022/02/02 01:38:16;;;;;;;46.15;9.23;;;;;;;;;;4405885;32;19942;-69
2022/02/02 01:40:46;;;;;;;;;;;;;;;;;;4405282;32;20022;-68
2022/02/02 01:43:17;;;;;;;43.00;8.75;;;;;;;;;;4404211;32;19929;-68
2022/02/02 01:45:53;;;;;;;48.85;8.35;;;;;;;;;;4404204;32;20495;-70
2022/02/02 01:50:57;;;;;;;59.47;10.35;;;;;;;;;;4405140;32;20019;-69
2022/02/02 01:53:32;;;;;;;38.63;7.95;;;;;;;;;;4407180;32;20124;-68
2022/02/02 01:55:58;;;;;;;44.17;8.98;;;;;;;;;;4397523;32;20034;-68
2022/02/02 01:58:52;;;;;;;;;;;;;;;;;;4390513;32;20438;-69
2022/02/02 02:01:19;;;;;;;49.40;9.35;;;;;;;;;;4391273;32;20285;-69
2022/02/02 02:03:44;;;;;;;41.30;8.48;;;;;;;;;;4389600;32;20057;-68
2022/02/02 02:06:09;;;;;;;;;;;;;;;;;;4392142;32;20027;-70
2022/02/02 02:08:38;;;;;;;45.90;8.05;;;;;;;;;;4405045;32;19971;-68
2022/02/02 02:11:09;;;;;;;49.22;9.45;;;;;;;;;;4405398;32;20105;-68
2022/02/02 02:16:19;;;;;;;58.28;8.43;;;;;;;;;;4406598;32;20105;-69
2022/02/02 02:18:44;;;;;;;;;;;;;;;;;;4402153;32;20023;-68
2022/02/02 02:21:13;;;;;;;52.65;8.93;;;;;;;;;;4388818;32;20251;-67
2022/02/02 02:23:38;;;;;;;56.40;8.73;;;;;;;;;;4395254;32;20051;-68
2022/02/02 02:26:05;;;;;;;;;;;;;;;;;;4405436;32;20048;-68
2022/02/02 02:31:01;;;;;;;;;;;;;;;;;;4406907;32;20332;-68
2022/02/02 02:33:52;;;;;;;39.15;8.02;;;;;;;;;;4406793;32;19953;-68
2022/02/02 02:58:09;;;;;;;54.70;9.30;;;;;;;;;;4390630;32;20041;-68
2022/02/02 03:00:54;;;;;;;;;;;;;;;;;;4390466;32;20094;-69
2022/02/02 03:49:51;;;;;;;49.60;9.05;;;;;;;;;;4408588;32;20053;-68
2022/02/02 03:55:23;;;;;;;39.05;8.23;;;;;;;;;;4407185;32;20404;-69
2022/02/02 03:58:15;;;;;;;46.40;8.10;;;;;;;;;;4408924;32;20015;-68
2022/02/02 04:03:50;;;;;;;45.40;8.20;;;;;;;;;;4393574;32;20019;-68
2022/02/02 04:06:21;;;;;;;42.80;8.35;;;;;;;;;;4392365;32;20027;-69
2022/02/02 04:08:47;;;;;;;36.55;7.87;;;;;;;;;;4390518;32;20341;-68
2022/02/02 04:11:17;;;;;;;;;;;;;;;;;;4393696;32;20080;-69
2022/02/02 04:37:26;;;;;;;44.88;7.80;;;;;;;;;;4408182;32;20019;-68
2022/02/02 04:52:14;;;;;;;46.25;9.45;;;;;;;;;;4392539;32;20105;-69
2022/02/02 04:57:57;;;;;;;52.50;9.38;;;;;;;;;;4392525;32;20046;-68
2022/02/02 05:03:39;;;;;;;44.17;8.65;;;;;;;;;;4390462;32;20387;-68
2022/02/02 05:06:01;;;;;;;57.33;9.55;;;;;;;;;;4392371;32;20027;-68
2022/02/02 05:16:55;;;;;;;;;;;;;;;;;;4403200;32;20023;-69
2022/02/02 05:25:08;;;;;;;57.67;9.63;;;;;;;;;;4405710;32;20430;-69
2022/02/02 05:53:26;;;;;;;56.40;8.20;;;;;;;;;;4405839;32;20407;-69
2022/02/02 05:55:51;;;;;;;;;;;;;;;;;;4404818;32;20096;-68
2022/02/02 05:58:21;;;;;;;44.53;7.72;;;;;;;;;;4403442;32;19975;-68
2022/02/02 06:00:46;;;;;;;60.40;8.43;;;;;;;;;;4404224;32;20038;-69
2022/02/02 06:03:11;;;;;;;;;;;;;;;;;;4402848;32;20076;-68
2022/02/02 06:05:37;;;;;;;51.10;9.06;;;;;;;;;;4406006;32;19997;-69
2022/02/02 06:08:02;;;;;;;;;;;;;;;;;;4390728;32;20324;-69
2022/02/02 06:10:28;;;;;;;48.98;7.86;;;;;;;;;;4389222;32;19941;-68
2022/02/02 06:12:54;;;;;;;51.42;9.80;;;;;;;;;;4389628;32;20061;-69
2022/02/02 06:15:20;;;;;;;;;;;;;;;;;;4389683;32;20408;-69
2022/02/02 06:17:50;;;;;;;63.00;10.88;;;;;;;;;;4389946;32;20338;-68
2022/02/02 06:20:15;;;;;;;50.60;7.72;;;;;;;;;;4389982;32;20160;-68
2022/02/02 06:22:40;;;;;;;;;;;;;;;;;;4390993;32;20464;-68
2022/02/02 06:25:27;;;;;;;47.85;7.47;;;;;;;;;;4389899;32;20021;-68
2022/02/02 06:28:00;;;;;;;46.80;9.10;;;;;;;;;;4390356;32;20123;-69
2022/02/02 06:30:27;;;;;;;46.75;7.95;;;;;;;;;;4390066;32;20404;-69
2022/02/02 06:32:53;;;;;;;38.17;7.90;;;;;;;;;;4390608;32;20041;-68
2022/02/02 06:35:20;;;;;;;68.75;8.35;;;;;;;;;;4399338;32;20035;-69
2022/02/02 06:37:45;;;;;;;48.72;7.90;;;;;;;;;;4405988;32;20451;-69
2022/02/02 06:40:10;;;;;;;;;;;;;;;;;;4402848;32;20019;-69
2022/02/02 06:42:36;;;;;;;57.00;9.25;;;;;;;;;;4405959;32;19934;-68
2022/02/02 06:45:01;;;;;;;;;;;;;;;;;;4404852;32;20444;-69
2022/02/02 06:47:27;;;;;;;35.78;6.40;;;;;;;;;;4405942;32;19937;-69
2022/02/02 06:50:01;;;;;;;;;;;;;;;;;;4408337;32;20159;-68
2022/02/02 06:52:29;;;;;;;49.72;9.70;;;;;;;;;;4407697;32;19933;-69
2022/02/02 06:55:10;;;;;;;43.42;7.07;;;;;;;;;;4407100;32;20103;-68
2022/02/02 06:58:01;;;;;;;42.97;10.23;;;;;;;;;;4408663;32;20305;-70
2022/02/02 07:00:45;;;;;;;50.08;9.15;;;;;;;;;;4406911;32;20080;-69
2022/02/02 07:03:35;;;;;;;38.78;6.93;;;;;;;;;;4407591;32;20427;-68
2022/02/02 07:08:43;;;;;;;47.53;9.00;;;;;;;;;;4408383;32;20420;-68
2022/02/02 07:11:23;;;;;;;48.42;7.90;;;;;;;;;;4402421;32;20014;-69
2022/02/02 07:29:51;;;;;;;46.28;8.75;;;;;;;;;;4400363;32;20064;-69
2022/02/02 07:32:21;;;;;;;35.88;7.03;;;;;;;;;;4407478;32;20105;-69
2022/02/02 07:35:51;;;;;;;45.53;6.68;;;;;;;;;;4397575;32;20380;-69
2022/02/02 07:37:56;;;;;;;38.17;6.45;;;;;;;;;;4393426;32;20022;-69
2022/02/02 07:40:21;;;;;;;47.85;7.00;;;;;;;;;;4404971;32;20454;-69
2022/02/02 07:42:46;;;;;;;;;;;;;;;;;;4407941;32;20114;-69
2022/02/02 07:45:12;;;;;;;40.38;7.30;;;;;;;;;;4405328;32;20349;-69
2022/02/02 07:47:37;;;;;;;;;;;;;;;;;;4406120;32;20113;-69
2022/02/02 07:50:04;;;;;;;52.17;8.32;;;;;;;;;;4407979;32;19948;-69
2022/02/02 07:52:30;;;;;;;31.98;5.82;;;;;;;;;;4406854;32;20067;-69
2022/02/02 07:54:58;;;;;;;;;;;;;;;;;;4407408;32;20446;-69
2022/02/02 07:57:27;;;;;;;55.38;8.93;;;;;;;;;;4404572;32;19983;-69
2022/02/02 08:02:34;;;;;;;47.92;7.12;;;;;;;;;;4407438;32;20030;-68
2022/02/02 08:05:01;;;;;;;33.55;6.32;;;;;;;;;;4392273;32;20412;-69
2022/02/02 08:07:32;;;;;;;39.33;6.50;;;;;;;;;;4390745;32;20026;-67
2022/02/02 08:10:15;;;;;;;26.00;5.85;;;;;;;;;;4392845;32;20010;-68
2022/02/02 08:15:12;;;;;;;39.08;7.25;;;;;;;;;;4391241;32;20019;-68
2022/02/02 08:17:38;;;;;;;;;;;;;;;;;;4391120;32;20034;-69
2022/02/02 08:20:04;;;;;;;36.78;6.80;;;;;;;;;;4392973;32;19952;-68
2022/02/02 08:22:29;;;;;;;;;;;;;;;;;;4392219;32;20023;-69
2022/02/02 08:24:55;;;;;;;36.90;7.15;;;;;;;;;;4392475;32;20019;-69
2022/02/02 08:27:20;;;;;;;;;;;;;;;;;;4392057;32;20039;-68
2022/02/02 08:29:46;;;;;;;33.17;4.75;;;;;;;;;;4394281;32;19942;-69
2022/02/02 08:32:11;;;;;;;;;;;;;;;;;;4391334;32;20404;-68
2022/02/02 08:34:43;;;;;;;33.42;6.50;;;;;;;;;;4391246;32;19934;-68
2022/02/02 08:37:09;;;;;;;30.73;5.40;;;;;;;;;;4392390;32;20022;-69
2022/02/02 08:42:18;;;;;;;27.37;4.53;;;;;;;;;;4407275;32;19975;-69
2022/02/02 08:44:50;;;;;;;;;;;;;;;;;;4406280;32;20065;-68
2022/02/02 08:47:19;;;;;;;22.30;5.95;;;;;;;;;;4405759;32;19957;-68
2022/02/02 08:49:52;;;;;;;34.47;5.80;;;;;;;;;;4405509;32;20057;-67
2022/02/02 08:52:17;;;;;;;28.17;5.78;;;;;;;;;;4394861;32;20053;-69
2022/02/02 08:54:47;;;;;;;;;;;;;;;;;;4391553;32;20074;-69
2022/02/02 08:57:36;;;;;;;33.08;5.37;;;;;;;;;;4392026;32;19941;-69
2022/02/02 09:00:10;;;;;;;23.15;4.75;;;;;;;;;;4390544;32;20015;-70
2022/02/02 09:02:36;;;;;;;27.52;4.78;;;;;;;;;;4392106;32;20117;-68
2022/02/02 09:05:23;;;;;;;25.80;4.95;;;;;;;;;;4389938;32;20072;-70
2022/02/02 09:07:48;;;;;;;28.15;6.00;;;;;;;;;;4394940;32;20038;-68
2022/02/02 09:10:20;;;;;;;;;;;;;;;;;;4404694;32;20053;-69
2022/02/02 09:23:28;;;;;;;;;;;;;;;;;;4406564;32;20412;-68
2022/02/02 09:31:51;;;;;;;32.92;5.00;;;;;;;;;;4391761;32;20072;-68
2022/02/02 09:34:19;;;;;;;20.67;4.75;;;;;;;;;;4388638;32;20093;-67
2022/02/02 09:36:45;;;;;;;42.85;6.55;;;;;;;;;;4388693;32;20044;-69
2022/02/02 09:39:18;;;;;;;24.25;5.65;;;;;;;;;;4390591;32;20045;-67
2022/02/02 09:41:49;;;;;;;23.50;4.60;;;;;;;;;;4390948;32;20088;-69
2022/02/02 09:44:18;;;;;;;21.00;7.00;;;;;;;;;;4391380;32;20046;-67
2022/02/02 09:47:00;;;;;;;28.10;5.05;;;;;;;;;;4389821;32;20090;-69
2022/02/02 09:49:32;;;;;;;21.75;4.18;;;;;;;;;;4390963;32;20018;-68
2022/02/02 09:52:02;;;;;;;24.52;5.55;;;;;;;;;;4403475;32;20037;-70
2022/02/02 09:54:46;;;;;;;25.75;5.57;;;;;;;;;;4401840;32;20056;-69
2022/02/02 10:04:59;;;;;;;22.65;5.30;;;;;;;;;;4398937;32;20420;-69
2022/02/02 10:15:15;;;;;;;;;;;;;;;;;;4390243;32;20399;-69
2022/02/02 10:17:40;;;;;;;30.10;4.40;;;;;;;;;;4390944;32;19933;-69
2022/02/02 10:20:05;;;;;;;;;;;;;;;;;;4399522;32;20162;-69
2022/02/02 10:22:31;;;;;;;25.77;5.12;;;;;;;;;;4397248;32;19938;-69
2022/02/02 10:24:59;;;;;;;;;;;;;;;;;;4398744;32;20441;-70
2022/02/02 10:27:27;;;;;;;25.10;3.90;;;;;;;;;;4398606;32;19934;-70
2022/02/02 10:29:52;;;;;;;25.83;4.37;;;;;;;;;;4400226;32;20118;-68
2022/02/02 10:32:18;;;;;;;;;;;;;;;;;;4393068;32;20083;-68
2022/02/02 10:34:43;;;;;;;22.15;4.80;;;;;;;;;;4402486;32;19971;-69
2022/02/02 10:37:08;;;;;;;;;;;;;;;;;;4399199;32;20061;-69
2022/02/02 10:39:47;;;;;;;31.02;6.07;;;;;;;;;;4389265;32;19989;-69
2022/02/02 10:42:12;;;;;;;16.90;4.70;;;;;;;;;;4391974;32;20116;-68
2022/02/02 10:44:40;;;;;;;;;;;;;;;;;;4391938;32;20046;-68
2022/02/02 10:49:57;;;;;;;37.15;7.28;;;;;;;;;;4391035;32;20046;-69
2022/02/02 10:52:44;;;;;;;18.40;4.80;;;;;;;;;;4401746;32;20023;-69
2022/02/02 10:55:51;;;;;;;24.37;4.68;;;;;;;;;;4402833;32;20085;-69
2022/02/02 11:09:02;;;;;;;23.30;5.22;;;;;;;;;;4403139;32;20023;-69
2022/02/02 11:11:27;;;;;;;;;;;;;;;;;;4398107;32;20038;-69
2022/02/02 11:13:58;;;;;;;21.37;4.12;;;;;;;;;;4388565;32;19938;-68
2022/02/02 11:16:26;;;;;;;23.92;5.60;;;;;;;;;;4394581;32;20088;-69
2022/02/02 11:18:52;;;;;;;24.65;5.20;;;;;;;;;;4389746;32;20518;-70
2022/02/02 11:21:20;;;;;;;18.52;4.72;;;;;;;;;;4401732;32;20076;-69
2022/02/02 11:23:50;;;;;;;19.40;4.25;;;;;;;;;;4389505;32;20414;-70
2022/02/02 11:26:33;;;;;;;24.77;4.82;;;;;;;;;;4404324;32;20423;-70
2022/02/02 11:28:59;;;;;;;24.35;4.97;;;;;;;;;;4390990;32;20065;-69
2022/02/02 11:31:24;;;;;;;;;;;;;;;;;;4389894;32;20396;-71
2022/02/02 11:33:51;;;;;;;16.67;3.80;;;;;;;;;;4403217;32;19948;-69
2022/02/02 11:36:19;;;;;;;22.58;4.28;;;;;;;;;;4407231;32;20035;-70
2022/02/02 11:38:45;;;;;;;12.43;3.87;;;;;;;;;;4393151;32;20031;-69
2022/02/02 11:41:30;;;;;;;;;;;;;;;;;;4391458;32;20121;-68
2022/02/02 11:47:05;;;;;;;25.20;5.20;;;;;;;;;;4394614;32;20018;-70
2022/02/02 11:49:47;;;;;;;17.12;3.65;;;;;;;;;;4368967;32;20026;-68
2022/02/02 11:52:32;;;;;;;20.40;4.78;;;;;;;;;;4392268;32;20088;-69
2022/02/02 11:54:57;;;;;;;20.52;4.40;;;;;;;;;;4399535;32;20462;-69
2022/02/02 11:57:25;;;;;;;;;;;;;;;;;;4405333;32;20281;-70
2022/02/02 12:02:39;;;;;;;16.60;4.32;;;;;;;;;;4405984;32;20049;-69
2022/02/02 12:05:20;;;;;;;20.65;4.40;;;;;;;;;;4392238;32;20014;-69
2022/02/02 12:20:40;;;;;;;27.10;5.60;;;;;;;;;;4405264;32;20376;-70
2022/02/02 12:56:57;;;;;;;24.85;4.30;;;;;;;;;;4390908;32;20088;-70
2022/02/02 13:02:12;;;;;;;19.40;4.70;;;;;;;;;;4406985;32;20045;-69
2022/02/02 13:04:39;;;;;;;20.80;4.78;;;;;;;;;;4405236;32;20087;-69
2022/02/02 13:07:08;;;;;;;20.48;4.40;;;;;;;;;;4403596;32;20058;-68
2022/02/02 13:09:34;;;;;;;25.25;5.72;;;;;;;;;;4406700;32;20356;-70
2022/02/02 13:11:59;;;;;;;;;;;;;;;;;;4406749;32;20049;-70
2022/02/02 13:14:36;;;;;;;22.27;4.90;;;;;;;;;;4405058;32;19933;-70
2022/02/02 13:17:03;;;;;;;19.37;4.50;;;;;;;;;;4405979;32;20040;-69
2022/02/02 13:19:33;;;;;;;21.30;4.40;;;;;;;;;;4405859;32;20069;-69
2022/02/02 13:22:05;;;;;;;15.70;4.07;;;;;;;;;;4403735;32;20022;-71
2022/02/02 13:24:32;;;;;;;28.02;6.53;;;;;;;;;;4388852;32;20022;-69
2022/02/02 13:27:05;;;;;;;33.08;7.00;;;;;;;;;;4389667;32;20018;-69
2022/02/02 13:29:39;;;;;;;20.92;5.20;;;;;;;;;;4392095;32;20047;-69
2022/02/02 13:34:41;;;;;;;18.50;4.85;;;;;;;;;;4392088;32;20384;-69
2022/02/02 13:37:28;;;;;;;17.17;3.97;;;;;;;;;;4391992;32;20097;-69
2022/02/02 13:48:05;;;;;;;19.95;5.10;;;;;;;;;;4393079;32;20129;-68
2022/02/02 13:58:40;;;;;;;31.80;5.40;;;;;;;;;;4390827;32;20045;-69
2022/02/02 14:01:17;;;;;;;23.23;4.70;;;;;;;;;;4389840;32;20026;-70
2022/02/02 14:09:06;;;;;;;18.17;4.55;;;;;;;;;;4390873;32;20076;-69
2022/02/02 14:33:19;;;;;;;20.45;4.80;;;;;;;;;;4390635;32;20391;-69
2022/02/02 14:35:45;;;;;;;;;;;;;;;;;;4390127;32;20068;-69
2022/02/02 14:38:12;;;;;;;18.20;4.20;;;;;;;;;;4389331;32;19972;-69
2022/02/02 14:43:12;;;;;;;41.90;7.05;;;;;;;;;;4390801;32;20408;-69
2022/02/02 14:45:41;;;;;;;23.00;4.55;;;;;;;;;;4389333;32;20023;-70
2022/02/02 14:48:20;;;;;;;19.40;5.05;;;;;;;;;;4395074;32;20117;-69
2022/02/02 14:53:43;;;;;;;19.92;4.47;;;;;;;;;;4404138;32;20405;-69
2022/02/02 14:56:24;;;;;;;19.80;4.40;;;;;;;;;;4403316;32;20068;-69
2022/02/02 15:09:52;;;;;;;;;;;;;;;;;;4407161;32;20263;-69
2022/02/02 15:28:01;;;;;;;13.75;3.30;;;;;;;;;;4407606;32;20117;-69
2022/02/02 15:30:50;;;;;;;12.88;2.65;;;;;;;;;;4406131;32;20031;-69
2022/02/02 15:33:17;;;;;;;10.20;2.85;;;;;;;;;;4405970;32;20072;-69
2022/02/02 15:35:43;;;;;;;11.38;2.92;;;;;;;;;;4408464;32;20022;-69
2022/02/02 15:38:18;;;;;;;12.10;3.30;;;;;;;;;;4405269;32;20094;-69
2022/02/02 15:40:52;;;;;;;17.55;3.92;;;;;;;;;;4406967;32;20102;-69
2022/02/02 15:43:42;;;;;;;20.50;4.10;;;;;;;;;;4407858;32;20037;-69
2022/02/02 16:03:23;;;;;;;16.00;4.20;;;;;;;;;;4376021;32;20045;-72
2022/02/02 16:05:26;;;;;;;26.65;5.45;;;;;;;;;;4386828;32;20031;-68
2022/02/02 16:07:53;;;;;;;21.08;4.43;;;;;;;;;;4411954;32;20014;-69
2022/02/02 16:10:26;;;;;;;15.52;4.10;;;;;;;;;;4400627;32;20157;-70
2022/02/02 16:12:51;;;;;;;26.67;3.15;;;;;;;;;;4406518;32;20019;-69
2022/02/02 16:15:21;;;;;;;;;;;;;;;;;;4407149;32;20034;-69
2022/02/02 16:18:32;;;;;;;13.80;3.20;;;;;;;;;;4407811;32;19937;-69
2022/02/02 16:31:57;;;;;;;21.40;4.15;;;;;;;;;;4407070;32;20382;-69
2022/02/02 16:34:45;;;;;;;16.17;3.45;;;;;;;;;;4407327;32;20345;-69
2022/02/02 16:37:13;;;;;;;20.67;3.90;;;;;;;;;;4406412;32;20022;-69
2022/02/02 16:39:50;;;;;;;12.98;3.12;;;;;;;;;;4405983;32;20031;-71
2022/02/02 16:44:59;;;;;;;24.23;5.97;;;;;;;;;;4399153;32;20125;-70
2022/02/02 16:47:24;;;;;;;;;;;;;;;;;;4402393;32;20019;-70
2022/02/02 16:49:49;;;;;;;15.00;3.60;;;;;;;;;;4405248;32;20366;-69
2022/02/02 16:52:17;;;;;;;;;;;;;;;;;;4398360;32;20027;-69
2022/02/02 16:54:44;;;;;;;19.23;3.72;;;;;;;;;;4405407;32;19953;-69
2022/02/02 16:57:30;;;;;;;12.37;4.05;;;;;;;;;;4405452;32;20064;-69
2022/02/02 17:30:27;;;;;;;16.25;7.28;;;;;;;;;;4390232;32;20019;-68
2022/02/02 17:34:54;;;;;;;20.25;7.62;;;;;;;;;;4389817;32;20042;-68
2022/02/02 17:39:59;;;;;;;;;;;;;;;;;;4391649;32;20023;-70
2022/02/02 17:45:29;;;;;;;16.52;7.43;;;;;;;;;;4390789;32;20137;-70
2022/02/02 18:12:47;;;;;;;23.17;15.52;;;;;;;;;;4390186;32;20110;-68
2022/02/02 18:18:42;;;;;;;25.35;16.30;;;;;;;;;;4400599;32;20462;-70
2022/02/02 18:20:48;;;;;;;31.10;17.50;;;;;;;;;;4400220;32;20046;-69
2022/02/02 18:23:53;;;;;;;32.58;19.33;;;;;;;;;;4397135;32;20030;-69
2022/02/02 18:28:46;;;;;;;31.77;19.55;;;;;;;;;;4389317;32;20035;-69
2022/02/02 18:34:08;;;;;;;39.47;24.10;;;;;;;;;;4405286;32;20030;-68
2022/02/02 18:36:45;;;;;;;42.62;24.02;;;;;;;;;;4404262;32;20446;-68
2022/02/02 18:45:35;;;;;;;42.95;26.17;;;;;;;;;;4398114;32;20432;-68
2022/02/02 19:02:22;;;;;;;44.13;25.25;;;;;;;;;;4407686;32;20034;-69
2022/02/02 19:07:43;;;;;;;47.47;26.87;;;;;;;;;;4408966;32;20045;-68
2022/02/02 19:40:06;;;;;;;102.45;51.42;;;;;;;;;;4392425;32;20079;-69
2022/02/02 19:54:30;;;;;;;53.58;30.73;;;;;;;;;;4409555;32;20045;-69
2022/02/02 19:56:27;;;;;;;55.70;31.70;;;;;;;;;;4393126;32;20026;-69
2022/02/02 20:01:54;;;;;;;63.13;31.67;;;;;;;;;;4392649;32;20136;-70
2022/02/02 20:07:09;;;;;;;59.78;32.90;;;;;;;;;;4403448;32;20092;-70
2022/02/02 20:12:24;;;;;;;55.78;29.63;;;;;;;;;;4394916;32;19954;-69
2022/02/02 20:14:49;;;;;;;54.88;30.10;;;;;;;;;;4394529;32;20069;-70
2022/02/02 20:17:17;;;;;;;;;;;;;;;;;;4391540;32;20389;-70
2022/02/02 20:19:46;;;;;;;57.40;30.50;;;;;;;;;;4399505;32;20362;-68
2022/02/02 20:22:12;;;;;;;59.17;30.55;;;;;;;;;;4415997;32;20063;-68
2022/02/02 20:24:50;;;;;;;;;;;;;;;;;;4407068;32;20023;-71
2022/02/02 20:27:15;;;;;;;50.40;28.48;;;;;;;;;;4413778;32;19929;-68
2022/02/02 20:29:41;;;;;;;;;;;;;;;;;;4407142;32;20081;-70
2022/02/02 20:32:06;;;;;;;56.03;27.55;;;;;;;;;;4396836;32;19934;-70
2022/02/02 20:34:31;;;;;;;;;;;;;;;;;;4396616;32;20109;-69
2022/02/02 20:36:56;;;;;;;44.58;24.15;;;;;;;;;;4400109;32;19942;-70
2022/02/02 20:39:37;;;;;;;;;;;;;;;;;;4401068;32;20063;-69
2022/02/02 20:42:05;;;;;;;41.35;22.30;;;;;;;;;;4400118;32;19948;-68
2022/02/02 21:06:18;;;;;;;27.05;14.00;;;;;;;;;;4402256;32;20408;-69
2022/02/02 21:11:19;;;;;;;;;;;;;;;;;;4393541;32;20023;-70
2022/02/02 21:13:52;;;;;;;34.65;17.20;;;;;;;;;;4394044;32;20007;-70
2022/02/02 21:16:20;;;;;;;34.60;17.33;;;;;;;;;;4394941;32;20097;-70
2022/02/02 21:18:47;;;;;;;32.53;17.77;;;;;;;;;;4391343;32;20057;-70
2022/02/02 21:21:59;;;;;;;31.10;18.25;;;;;;;;;;4393466;32;20066;-70
2022/02/02 21:24:45;;;;;;;38.47;19.17;;;;;;;;;;4394683;32;20534;-69
2022/02/02 21:27:19;;;;;;;38.20;18.65;;;;;;;;;;4405281;32;20044;-69
2022/02/02 21:29:44;;;;;;;35.22;18.60;;;;;;;;;;4401054;32;20107;-68
2022/02/02 21:32:10;;;;;;;;;;;;;;;;;;4407098;32;20022;-69
2022/02/02 21:34:35;;;;;;;43.47;19.87;;;;;;;;;;4406622;32;19933;-69
2022/02/02 21:37:04;;;;;;;;;;;;;;;;;;4401264;32;20384;-69
2022/02/02 21:39:31;;;;;;;35.65;18.62;;;;;;;;;;4395466;32;19937;-69
2022/02/02 21:41:57;;;;;;;39.42;22.20;;;;;;;;;;4401924;32;20029;-69
2022/02/02 21:44:22;;;;;;;;;;;;;;;;;;4402748;32;20075;-68
2022/02/02 21:46:49;;;;;;;45.74;22.32;;;;;;;;;;4402358;32;19949;-68
2022/02/02 21:49:20;;;;;;;37.03;20.55;;;;;;;;;;4396506;32;20352;-69
2022/02/02 21:54:39;;;;;;;39.30;19.95;;;;;;;;;;4389507;32;20068;-69
2022/02/02 21:57:05;;;;;;;;;;;;;;;;;;4393230;32;20027;-69
2022/02/02 21:59:30;;;;;;;31.77;17.80;;;;;;;;;;4392088;32;19953;-69
2022/02/02 22:01:55;;;;;;;;;;;;;;;;;;4390307;32;20026;-69
2022/02/02 22:04:21;;;;;;;33.67;19.50;;;;;;;;;;4394065;32;19938;-67
2022/02/02 22:06:46;;;;;;;;;;;;;;;;;;4400244;32;20030;-69
2022/02/02 22:09:11;;;;;;;30.33;17.08;;;;;;;;;;4398887;32;19960;-69
2022/02/02 22:11:36;;;;;;;;;;;;;;;;;;4398014;32;20139;-68
2022/02/02 22:14:06;;;;;;;29.35;16.35;;;;;;;;;;4401193;32;20329;-69
2022/02/02 22:16:33;;;;;;;32.15;17.23;;;;;;;;;;4391291;32;20575;-69
2022/02/02 22:18:58;;;;;;;29.17;16.40;;;;;;;;;;4402983;32;20084;-68
2022/02/02 22:21:27;;;;;;;;;;;;;;;;;;4405702;32;20111;-69
2022/02/02 22:23:52;;;;;;;25.35;15.70;;;;;;;;;;4396944;32;20001;-69
2022/02/02 22:26:19;;;;;;;;;;;;;;;;;;4392014;32;20499;-69
2022/02/02 22:28:44;;;;;;;25.48;16.12;;;;;;;;;;4388489;32;19984;-69
2022/02/02 22:31:09;;;;;;;;;;;;;;;;;;4390611;32;20097;-70
2022/02/02 22:33:34;;;;;;;28.12;14.75;;;;;;;;;;4391209;32;19964;-68
2022/02/02 22:35:59;;;;;;;;;;;;;;;;;;4402175;32;20019;-69
2022/02/02 22:38:25;;;;;;;23.08;15.40;;;;;;;;;;4404251;32;20378;-69
2022/02/02 22:40:50;;;;;;;;;;;;;;;;;;4397680;32;20160;-68
2022/02/02 22:43:15;;;;;;;30.17;15.48;;;;;;;;;;4402123;32;19933;-68
2022/02/02 22:45:43;;;;;;;;;;;;;;;;;;4400693;32;20141;-69
2022/02/02 22:48:09;;;;;;;25.55;14.87;;;;;;;;;;4389434;32;19945;-69
2022/02/02 22:50:34;;;;;;;;;;;;;;;;;;4389831;32;20059;-69
2022/02/02 22:52:59;;;;;;;19.42;12.30;;;;;;;;;;4389228;32;19942;-69
2022/02/02 22:55:25;;;;;;;;;;;;;;;;;;4389668;32;20035;-69
2022/02/02 22:57:50;;;;;;;24.55;13.50;;;;;;;;;;4391769;32;19942;-69
2022/02/02 23:00:15;;;;;;;;;;;;;;;;;;4390523;32;20047;-69
2022/02/02 23:02:53;;;;;;;26.23;13.88;;;;;;;;;;4391496;32;20375;-69
2022/02/02 23:05:21;;;;;;;23.23;13.10;;;;;;;;;;4399234;32;20019;-69
2022/02/02 23:07:46;;;;;;;35.28;13.70;;;;;;;;;;4394166;32;20187;-68
2022/02/02 23:10:11;;;;;;;;;;;;;;;;;;4394521;32;20432;-68
2022/02/02 23:12:36;;;;;;;27.15;13.90;;;;;;;;;;4392767;32;19997;-68
2022/02/02 23:15:03;;;;;;;;;;;;;;;;;;4392895;32;20097;-69
2022/02/02 23:17:30;;;;;;;30.07;13.50;;;;;;;;;;4404181;32;19982;-69
2022/02/02 23:19:55;;;;;;;30.10;14.18;;;;;;;;;;4404808;32;20157;-68
2022/02/02 23:22:24;;;;;;;;;;;;;;;;;;4405472;32;20076;-69
2022/02/02 23:24:51;;;;;;;25.85;12.77;;;;;;;;;;4405988;32;20076;-68
2022/02/02 23:27:17;;;;;;;29.23;14.98;;;;;;;;;;4395726;32;20072;-69
2022/02/02 23:29:44;;;;;;;;;;;;;;;;;;4392054;32;20022;-70
2022/02/02 23:32:10;;;;;;;25.08;12.02;;;;;;;;;;4405215;32;19989;-68
2022/02/02 23:34:35;;;;;;;;;;;;;;;;;;4404475;32;20031;-69
2022/02/02 23:37:00;;;;;;;29.92;13.60;;;;;;;;;;4406285;32;20013;-69
2022/02/02 23:39:26;;;;;;;;;;;;;;;;;;4408290;32;20019;-70
2022/02/02 23:44:22;;;;;;;32.85;14.55;;;;;;;;;;4408685;32;20097;-69
2022/02/02 23:46:49;;;;;;;;;;;;;;;;;;4392759;32;20049;-69
2022/02/02 23:49:20;;;;;;;27.83;13.30;;;;;;;;;;4400057;32;20597;-69
2022/02/02 23:51:47;;;;;;;26.98;13.18;;;;;;;;;;4398978;32;20061;-68
2022/02/02 23:54:12;;;;;;;28.42;13.55;;;;;;;;;;4406559;32;20428;-69
2022/02/02 23:56:49;;;;;;;;;;;;;;;;;;4393735;32;20060;-68
2022/02/02 23:59:26;;;;;;;35.80;15.88;;;;;;;;;;4408095;32;19984;-68
